This is the latest recevied weather packets stored in our database for station/object DB0OHA-10. If no packets are shown the sender has not sent any weather packets the latest 10 day(s).
| Time | Temp. | Humidity | Pressure | Rain* | Wind** | Luminosity | Snow |
|---|---|---|---|---|---|---|---|
| 1777622418 | 15.56° C | 50% | 1028.9 hPa | 0 mm | - | 541 W/m² | - |
| 1777621518 | 15° C | 51% | 1028.9 hPa | 0 mm | - | 510 W/m² | - |
| 1777620618 | 15° C | 53% | 1029 hPa | 0 mm | - | 475 W/m² | - |
| 1777619724 | 13.89° C | 56% | 1028.9 hPa | 0 mm | - | 432 W/m² | - |
| 1777619718 | 13.89° C | 56% | 1028.9 hPa | 0 mm | - | 432 W/m² | - |
| 1777618818 | 13.33° C | 60% | 1029 hPa | 0 mm | - | 355 W/m² | - |
| 1777617926 | 12.78° C | 61% | 1028.9 hPa | 0 mm | - | 285 W/m² | - |
| 1777617918 | 12.78° C | 61% | 1028.9 hPa | 0 mm | - | 285 W/m² | - |
| 1777617018 | 11.67° C | 62% | 1028.9 hPa | 0 mm | - | 269 W/m² | - |
| 1777616124 | 10.56° C | 63% | 1029 hPa | 0 mm | - | 246 W/m² | - |
| 1777616118 | 10.56° C | 63% | 1029 hPa | 0 mm | - | 246 W/m² | - |
| 1777615222 | 9.44° C | 63% | 1028.9 hPa | 0 mm | - | 192 W/m² | - |
| 1777615218 | 9.44° C | 63% | 1028.9 hPa | 0 mm | - | 192 W/m² | - |
| 1777614325 | 8.33° C | 63% | 1028.8 hPa | 0 mm | - | 30 W/m² | - |
| 1777614318 | 8.33° C | 63% | 1028.8 hPa | 0 mm | - | 30 W/m² | - |
| 1777613418 | 7.78° C | 62% | 1028.7 hPa | 0 mm | - | 26 W/m² | - |
| 1777612525 | 7.22° C | 62% | 1028.6 hPa | 0 mm | - | 25 W/m² | - |
| 1777612518 | 7.22° C | 62% | 1028.6 hPa | 0 mm | - | 25 W/m² | - |
| 1777611618 | 7.22° C | 62% | 1028.6 hPa | 0 mm | - | 21 W/m² | - |
| 1777610718 | 7.22° C | 61% | 1028.4 hPa | 0 mm | - | 18 W/m² | - |
| 1777609825 | 6.67° C | 61% | 1028.5 hPa | 0 mm | - | 14 W/m² | - |
| 1777609818 | 6.67° C | 61% | 1028.5 hPa | 0 mm | - | 14 W/m² | - |
| 1777608918 | 6.67° C | 60% | 1028.5 hPa | 0 mm | - | 11 W/m² | - |
| 1777608018 | 6.67° C | 59% | 1028.5 hPa | 0 mm | - | 5 W/m² | - |
| 1777607118 | 6.11° C | 56% | 1028.4 hPa | 0 mm | - | 0 W/m² | - |
* Rain latest hour (hover to see other rain measurements)
** Current wind speed in m/s (hover to see current wind gust speed)